Time;durP1;ratioP1;P1;durP2;ratioP2;P2;SDS_P1;SDS_P2;PMS_P1;PMS_P2;Temp;Humidity;BMP_temperature;BMP_pressure;BME280_temperature;BME280_humidity;BME280_pressure;Samples;Min_cycle;Max_cycle;Signal;HPM_P1;HPM_P2
2022/01/13 00:01:55;;;;;;;158.80;21.63;;;;;;;2.20;92.16;104112.06;5066222;28;20472;-91
2022/01/13 00:04:21;;;;;;;166.50;21.92;;;;;;;2.27;91.74;104116.72;5052103;28;20028;-90
2022/01/13 00:06:47;;;;;;;86.22;17.05;;;;;;;2.29;91.95;104108.97;5050832;28;20032;-90
2022/01/13 00:09:15;;;;;;;44.15;11.77;;;;;;;2.34;91.32;104106.59;5049117;28;20024;-90
2022/01/13 00:11:41;;;;;;;98.82;16.42;;;;;;;2.36;91.36;104123.19;5047558;28;20029;-90
2022/01/13 00:19:31;;;;;;;70.88;17.40;;;;;;;2.30;92.10;104114.25;5063449;28;21246;-90
2022/01/13 00:22:02;;;;;;;92.85;16.02;;;;;;;2.37;91.68;104132.81;5062581;28;20487;-90
2022/01/13 00:24:27;;;;;;;59.17;15.93;;;;;;;2.39;91.67;104133.81;5052033;28;20039;-90
2022/01/13 00:26:54;;;;;;;54.10;16.00;;;;;;;2.35;91.65;104135.38;5053932;28;20052;-90
2022/01/13 00:29:26;;;;;;;104.70;18.10;;;;;;;2.34;91.41;104123.16;5048629;28;20028;-90
2022/01/13 00:31:52;;;;;;;93.80;16.77;;;;;;;2.31;91.66;104122.97;5062702;28;20064;-90
2022/01/13 00:34:17;;;;;;;60.35;16.52;;;;;;;2.38;91.73;104135.53;5051208;28;20035;-91
2022/01/13 00:36:42;;;;;;;75.93;17.40;;;;;;;2.40;91.62;104128.63;5055766;28;20059;-91
2022/01/13 00:39:10;;;;;;;66.93;18.00;;;;;;;2.42;91.40;104132.19;5065701;28;20025;-91
2022/01/13 00:41:35;;;;;;;64.70;17.17;;;;;;;2.40;91.47;104122.53;5056854;28;20035;-91
2022/01/13 00:44:06;;;;;;;83.25;18.80;;;;;;;2.42;91.44;104124.38;5052967;28;20036;-91
2022/01/13 00:46:43;;;;;;;31.27;10.45;;;;;;;2.40;91.27;104110.34;5062278;28;20092;-90
2022/01/13 00:49:10;;;;;;;59.67;17.80;;;;;;;2.38;91.16;104112.03;5063872;28;20119;-90
2022/01/13 00:51:36;;;;;;;42.40;13.13;;;;;;;2.37;91.13;104109.31;5053005;28;20049;-90
2022/01/13 00:54:05;;;;;;;64.18;16.52;;;;;;;2.31;91.02;104109.94;5053710;28;20089;-91
2022/01/13 00:56:32;;;;;;;139.77;22.63;;;;;;;2.04;91.55;104106.91;5052860;28;20487;-90
2022/01/13 00:58:58;;;;;;;142.70;23.65;;;;;;;2.04;91.78;104106.91;5054399;28;20162;-90
2022/01/13 01:01:24;;;;;;;54.42;15.02;;;;;;;2.18;91.61;104104.97;5051086;28;20107;-91
2022/01/13 01:03:49;;;;;;;64.82;14.85;;;;;;;2.17;91.45;104100.56;5054690;28;20032;-91
2022/01/13 01:06:14;;;;;;;180.95;22.63;;;;;;;2.16;91.64;104094.44;5052301;28;20040;-90
2022/01/13 01:08:40;;;;;;;149.10;22.70;;;;;;;2.10;91.77;104094.19;5064373;28;20043;-91
2022/01/13 01:11:06;;;;;;;169.05;25.00;;;;;;;2.18;91.64;104103.22;5050824;28;20032;-90
2022/01/13 01:13:34;;;;;;;107.53;18.13;;;;;;;2.22;91.67;104099.06;5064537;28;20024;-91
2022/01/13 01:16:04;;;;;;;151.27;22.73;;;;;;;2.20;91.84;104101.59;5051349;28;20121;-91
2022/01/13 01:23:57;;;;;;;37.42;11.88;;;;;;;2.26;91.19;104104.50;5063850;28;20499;-90
2022/01/13 01:29:11;;;;;;;47.28;13.65;;;;;;;2.26;91.18;104108.81;5064292;28;20107;-90
2022/01/13 01:31:38;;;;;;;87.95;16.60;;;;;;;2.26;91.24;104104.50;5050396;28;20561;-91
2022/01/13 01:34:23;;;;;;;132.10;20.38;;;;;;;2.24;91.50;104105.25;5044275;28;20033;-91
2022/01/13 01:36:49;;;;;;;74.07;16.98;;;;;;;2.15;91.60;104100.50;5043308;28;20091;-91
2022/01/13 01:39:15;;;;;;;106.85;19.88;;;;;;;2.09;91.69;104110.63;5043240;28;20502;-91
2022/01/13 01:41:47;;;;;;;76.00;16.83;;;;;;;2.08;91.85;104098.41;5043077;28;20111;-91
2022/01/13 01:44:15;;;;;;;111.40;21.40;;;;;;;1.86;91.88;104095.59;5044282;28;20476;-91
2022/01/13 01:46:45;;;;;;;67.13;15.25;;;;;;;1.87;91.90;104090.47;5042594;28;20029;-91
2022/01/13 01:49:16;;;;;;;80.97;16.58;;;;;;;1.92;91.46;104096.81;5041894;28;20025;-91
2022/01/13 01:51:46;;;;;;;78.40;16.15;;;;;;;1.72;92.37;104093.22;5043026;28;20048;-90
2022/01/13 01:54:12;;;;;;;38.55;13.13;;;;;;;1.85;91.85;104096.41;5044280;28;20032;-90
2022/01/13 01:56:38;;;;;;;65.63;17.52;;;;;;;1.96;91.41;104092.63;5042440;28;20484;-91
2022/01/13 01:59:11;;;;;;;80.40;17.35;;;;;;;1.90;91.57;104102.75;5043097;28;20079;-91
2022/01/13 02:01:36;;;;;;;;;;;;;;;1.98;91.46;104091.88;5042132;28;20024;-91
2022/01/13 02:04:02;;;;;;;66.95;16.95;;;;;;;1.93;91.57;104092.47;5043567;28;19934;-91
2022/01/13 02:06:27;;;;;;;60.67;14.75;;;;;;;1.94;91.87;104089.94;5043490;28;20029;-91
2022/01/13 02:08:53;;;;;;;90.47;16.95;;;;;;;1.88;91.64;104089.66;5042857;28;20025;-91
2022/01/13 02:11:19;;;;;;;72.97;15.35;;;;;;;1.92;91.70;104099.41;5041919;28;20036;-91
2022/01/13 02:13:50;;;;;;;77.65;17.40;;;;;;;1.92;91.49;104093.31;5043077;28;20040;-91
2022/01/13 02:16:57;;;;;;;43.50;12.25;;;;;;;1.88;91.53;104086.16;5041041;28;20516;-90
2022/01/13 02:19:04;;;;;;;46.38;14.18;;;;;;;1.94;91.50;104096.88;5035047;28;20025;-91
2022/01/13 02:21:29;;;;;;;57.47;14.73;;;;;;;1.84;91.42;104105.06;5057039;28;20021;-91
2022/01/13 02:23:55;;;;;;;54.78;15.35;;;;;;;1.86;91.05;104111.25;5042770;28;20078;-90
2022/01/13 02:26:21;;;;;;;59.38;14.50;;;;;;;1.89;91.06;104111.41;5042827;28;20025;-90
2022/01/13 02:28:53;;;;;;;58.08;14.15;;;;;;;1.87;91.14;104118.28;5042447;28;20021;-91
2022/01/13 02:31:19;;;;;;;47.67;12.25;;;;;;;1.87;90.80;104105.22;5058816;28;20079;-91
2022/01/13 02:33:45;;;;;;;54.63;12.50;;;;;;;1.78;91.33;104108.28;5048550;28;20032;-90
2022/01/13 02:36:14;;;;;;;40.97;10.57;;;;;;;1.84;91.13;104118.13;5050011;28;20112;-91
2022/01/13 02:38:39;;;;;;;94.18;16.55;;;;;;;1.78;91.12;104101.34;5051130;28;20488;-91
2022/01/13 02:41:05;;;;;;;46.42;14.63;;;;;;;1.59;92.01;104097.78;5053494;28;20017;-91
2022/01/13 02:43:31;;;;;;;71.35;12.43;;;;;;;1.64;92.09;104107.59;5052104;28;20498;-91
2022/01/13 02:48:51;;;;;;;57.55;12.52;;;;;;;1.62;91.91;104096.19;4990618;28;20433;-91
2022/01/13 02:51:16;;;;;;;84.32;15.30;;;;;;;1.61;91.98;104103.94;5052880;28;20025;-91
2022/01/13 02:53:42;;;;;;;76.32;14.07;;;;;;;1.61;92.31;104104.84;5052734;28;20124;-91
2022/01/13 02:56:07;;;;;;;74.57;14.60;;;;;;;1.61;92.38;104102.22;5055602;28;20021;-91
2022/01/13 02:58:33;;;;;;;95.53;13.90;;;;;;;1.56;92.28;104102.84;5053365;28;20032;-91
2022/01/13 03:01:00;;;;;;;35.80;10.48;;;;;;;1.74;91.98;104103.72;5053813;28;20475;-91
2022/01/13 03:03:27;;;;;;;47.45;11.48;;;;;;;1.76;92.21;104100.38;5050487;28;20017;-91
2022/01/13 03:05:52;;;;;;;62.67;12.52;;;;;;;1.81;92.15;104107.53;5053954;28;20032;-91
2022/01/13 03:08:17;;;;;;;94.35;16.92;;;;;;;1.74;92.11;104091.59;5053710;28;20394;-91
2022/01/13 03:10:43;;;;;;;68.55;12.77;;;;;;;1.87;92.00;104092.19;5053896;28;20033;-90
2022/01/13 03:13:08;;;;;;;50.15;10.20;;;;;;;1.86;91.89;104082.56;5050629;28;20017;-91
2022/01/13 03:15:34;;;;;;;39.60;11.35;;;;;;;1.77;91.99;104085.59;5053167;28;20086;-90
2022/01/13 03:18:00;;;;;;;71.28;12.68;;;;;;;1.75;92.02;104092.47;5051838;28;20035;-91
2022/01/13 03:20:25;;;;;;;86.60;13.68;;;;;;;1.57;92.25;104074.22;5049389;28;20031;-90
2022/01/13 03:22:50;;;;;;;33.15;9.88;;;;;;;1.77;91.75;104091.75;5050612;28;20070;-90
2022/01/13 03:25:21;;;;;;;65.63;12.75;;;;;;;1.81;91.44;104089.25;5048390;28;20025;-91
2022/01/13 03:27:52;;;;;;;34.45;9.40;;;;;;;1.89;91.44;104095.75;5052650;28;20043;-90
2022/01/13 03:30:18;;;;;;;42.47;10.77;;;;;;;1.88;91.13;104079.22;5054152;28;20044;-91
2022/01/13 03:32:43;;;;;;;59.47;11.80;;;;;;;1.90;91.44;104084.50;5058542;28;20045;-91
2022/01/13 03:35:08;;;;;;;44.85;11.25;;;;;;;1.91;91.11;104083.66;5051194;28;21571;-91
2022/01/13 03:37:34;;;;;;;91.93;15.40;;;;;;;1.90;91.42;104082.78;5055056;28;20712;-91
2022/01/13 03:39:59;;;;;;;37.90;10.70;;;;;;;1.92;91.70;104075.94;5053485;28;20031;-90
2022/01/13 03:42:25;;;;;;;52.17;10.40;;;;;;;1.95;90.99;104069.94;5052478;28;20141;-91
2022/01/13 03:44:51;;;;;;;63.53;13.35;;;;;;;1.91;91.34;104076.75;5048766;28;20032;-91
2022/01/13 03:47:16;;;;;;;43.50;10.30;;;;;;;1.91;91.33;104066.31;5055516;28;20384;-91
2022/01/13 03:49:42;;;;;;;84.10;14.25;;;;;;;1.87;91.26;104080.03;5048951;28;20084;-92
2022/01/13 03:52:37;;;;;;;89.00;14.65;;;;;;;1.92;91.54;104075.03;5053289;28;20039;-91
2022/01/13 03:55:36;;;;;;;33.45;9.90;;;;;;;1.99;91.32;104077.09;4972373;28;20035;-91
2022/01/13 03:58:32;;;;;;;102.18;18.48;;;;;;;1.84;91.94;104082.47;5051328;28;20495;-90
2022/01/13 04:01:19;;;;;;;25.85;8.13;;;;;;;1.83;91.98;104080.72;5049113;28;20480;-91
2022/01/13 04:03:45;;;;;;;96.15;17.27;;;;;;;1.84;91.77;104076.38;5049069;28;20472;-91
2022/01/13 04:06:13;;;;;;;121.63;19.40;;;;;;;1.79;92.23;104077.03;5054075;28;20043;-91
2022/01/13 04:08:40;;;;;;;123.00;18.77;;;;;;;1.78;92.27;104077.88;5053988;28;20467;-90
2022/01/13 04:11:05;;;;;;;108.40;16.63;;;;;;;1.83;92.00;104075.50;5050720;28;20020;-91
2022/01/13 04:16:21;;;;;;;71.45;18.15;;;;;;;1.67;92.63;104057.28;5057053;28;20126;-91
2022/01/13 04:18:48;;;;;;;44.17;12.43;;;;;;;1.79;92.36;104063.13;5049160;28;20035;-90
2022/01/13 04:21:15;;;;;;;69.20;20.00;;;;;;;1.64;92.45;104057.16;5050058;28;20218;-91
2022/01/13 04:23:41;;;;;;;48.15;13.82;;;;;;;1.76;92.11;104058.63;5052111;28;20021;-91
2022/01/13 04:26:07;;;;;;;85.88;16.20;;;;;;;1.70;92.60;104062.66;5053787;28;20028;-91
2022/01/13 04:28:36;;;;;;;132.40;21.40;;;;;;;1.76;92.44;104061.25;5050727;28;20487;-91
2022/01/13 04:31:03;;;;;;;160.73;20.88;;;;;;;1.71;92.48;104073.16;5049229;28;20035;-91
2022/01/13 04:33:30;;;;;;;136.35;20.05;;;;;;;1.76;92.51;104056.03;5051617;28;20097;-90
2022/01/13 04:35:56;;;;;;;217.73;26.00;;;;;;;1.79;92.88;104052.69;5049134;28;20035;-91
2022/01/13 04:38:21;;;;;;;111.53;19.73;;;;;;;1.83;92.75;104054.63;5049444;28;20071;-91
2022/01/13 04:40:54;;;;;;;166.93;20.45;;;;;;;1.89;92.93;104056.63;5053139;28;20068;-91
2022/01/13 04:43:19;;;;;;;170.07;23.45;;;;;;;1.84;92.83;104052.91;5050125;28;20412;-91
2022/01/13 04:45:44;;;;;;;79.90;17.70;;;;;;;1.87;93.18;104050.44;5049221;28;20183;-91
2022/01/13 04:48:10;;;;;;;200.45;26.25;;;;;;;1.82;92.75;104054.53;5053939;28;20093;-91
2022/01/13 04:50:35;;;;;;;140.20;23.02;;;;;;;1.77;92.79;104046.47;5054324;28;20060;-91
2022/01/13 04:53:00;;;;;;;220.02;26.38;;;;;;;1.72;92.68;104050.59;5054231;28;20048;-91
2022/01/13 04:55:29;;;;;;;171.15;21.42;;;;;;;1.66;92.57;104048.59;5052284;28;20033;-90
2022/01/13 04:57:55;;;;;;;72.75;15.52;;;;;;;1.66;92.76;104056.41;5048265;28;20675;-91
2022/01/13 05:00:22;;;;;;;104.80;18.10;;;;;;;1.60;92.70;104060.44;5047073;28;20025;-91
2022/01/13 05:02:48;;;;;;;122.22;21.45;;;;;;;1.45;92.81;104047.56;5050520;28;20031;-91
2022/01/13 05:05:13;;;;;;;224.88;24.73;;;;;;;1.54;92.98;104050.63;5053140;28;20392;-91
2022/01/13 05:07:39;;;;;;;127.93;18.83;;;;;;;1.64;92.86;104057.16;5052423;28;20028;-90
2022/01/13 05:10:05;;;;;;;53.10;13.55;;;;;;;1.67;92.55;104052.09;5053895;28;20044;-91
2022/01/13 05:12:36;;;;;;;152.00;19.50;;;;;;;1.65;92.90;104064.16;5048850;28;20435;-91
2022/01/13 05:15:04;;;;;;;85.28;15.43;;;;;;;1.77;92.70;104068.28;5049700;28;20468;-91
2022/01/13 05:18:07;;;;;;;147.00;20.98;;;;;;;1.81;92.59;104065.78;5052367;28;20090;-91
2022/01/13 05:20:38;;;;;;;122.72;17.73;;;;;;;1.81;92.69;104066.69;5051755;28;20040;-92
2022/01/13 05:23:08;;;;;;;232.88;28.17;;;;;;;1.78;92.67;104058.72;5049839;28;20047;-91
2022/01/13 05:25:34;;;;;;;129.93;19.45;;;;;;;1.79;92.58;104063.13;5052094;28;20563;-91
2022/01/13 05:27:59;;;;;;;149.70;19.60;;;;;;;1.89;92.55;104070.56;5052533;28;20025;-91
2022/01/13 05:30:25;;;;;;;257.40;25.50;;;;;;;1.87;92.49;104053.06;5049238;28;20454;-91
2022/01/13 05:32:50;;;;;;;205.77;23.60;;;;;;;1.92;92.41;104057.66;5062251;28;20526;-91
2022/01/13 05:35:16;;;;;;;194.85;23.63;;;;;;;1.88;92.32;104058.34;5055658;28;20391;-91
2022/01/13 05:37:42;;;;;;;193.98;23.02;;;;;;;1.95;91.71;104060.41;5051060;28;20119;-90
2022/01/13 05:40:10;;;;;;;99.00;16.98;;;;;;;1.91;92.31;104047.13;5054572;28;20534;-90
2022/01/13 05:42:35;;;;;;;109.18;17.48;;;;;;;1.95;92.29;104054.28;5053386;28;20020;-90
2022/01/13 05:45:02;;;;;;;140.77;19.17;;;;;;;1.94;92.17;104045.56;5048961;28;20070;-91
2022/01/13 05:47:27;;;;;;;162.23;21.63;;;;;;;1.92;92.24;104048.94;5051531;28;20391;-91
2022/01/13 05:49:53;;;;;;;246.90;28.95;;;;;;;1.82;92.61;104058.06;5064902;28;20024;-91
2022/01/13 05:52:18;;;;;;;100.22;17.85;;;;;;;1.94;92.38;104065.56;5051449;28;20058;-92
2022/01/13 05:54:44;;;;;;;254.18;30.88;;;;;;;1.86;92.21;104057.34;5049876;28;20032;-91
2022/01/13 05:57:09;;;;;;;200.73;23.02;;;;;;;1.77;92.40;104057.84;5062975;28;20034;-91
2022/01/13 05:59:35;;;;;;;273.17;27.77;;;;;;;1.63;92.51;104045.84;5051365;28;20024;-91
2022/01/13 06:02:01;;;;;;;223.02;25.55;;;;;;;1.68;92.58;104053.88;5064602;28;20479;-91
2022/01/13 06:04:26;;;;;;;223.85;21.58;;;;;;;1.68;92.73;104060.00;5063495;28;20039;-90
2022/01/13 06:06:52;;;;;;;233.43;22.48;;;;;;;1.80;92.66;104062.28;5054097;28;20454;-91
2022/01/13 06:09:17;;;;;;;183.80;20.35;;;;;;;1.75;92.99;104058.56;5054142;28;20031;-91
2022/01/13 06:11:52;;;;;;;172.57;19.95;;;;;;;1.84;92.64;104059.00;5050453;28;20025;-91
2022/01/13 06:14:18;;;;;;;210.25;22.13;;;;;;;1.89;92.68;104064.44;5053234;28;20032;-91
2022/01/13 06:16:43;;;;;;;246.93;23.98;;;;;;;1.95;92.62;104059.50;5068092;28;20039;-91
2022/01/13 06:19:09;;;;;;;183.25;22.17;;;;;;;1.89;92.54;104056.63;5056331;28;20032;-91
2022/01/13 06:21:34;;;;;;;139.35;19.50;;;;;;;1.86;92.74;104049.53;5057355;28;20023;-91
2022/01/13 06:23:59;;;;;;;238.65;22.90;;;;;;;1.90;92.32;104045.34;5067677;28;20028;-91
2022/01/13 06:26:25;;;;;;;246.45;25.65;;;;;;;1.89;92.73;104041.84;5066466;28;20052;-93
2022/01/13 06:28:50;;;;;;;157.63;19.48;;;;;;;1.95;92.61;104049.06;5057337;28;20111;-91
2022/01/13 06:31:16;;;;;;;143.25;18.05;;;;;;;1.94;92.41;104057.72;5055100;28;20045;-91
2022/01/13 06:33:41;;;;;;;154.15;19.42;;;;;;;1.89;92.98;104040.97;5067758;28;20215;-91
2022/01/13 06:36:07;;;;;;;177.88;20.10;;;;;;;1.91;92.83;104050.66;5054550;28;20538;-91
2022/01/13 06:38:32;;;;;;;212.38;20.73;;;;;;;1.98;92.27;104052.72;5052891;28;20040;-91
2022/01/13 06:40:58;;;;;;;137.63;16.80;;;;;;;1.93;92.45;104045.50;5055910;28;20029;-91
2022/01/13 06:43:23;;;;;;;69.53;14.02;;;;;;;1.98;92.24;104050.13;5055364;28;21700;-91
2022/01/13 06:45:49;;;;;;;157.13;19.17;;;;;;;1.91;92.09;104045.44;5067487;28;20032;-91
2022/01/13 06:48:15;;;;;;;319.38;29.13;;;;;;;1.86;92.54;104049.53;5067686;28;20052;-91
2022/01/13 06:50:40;;;;;;;131.30;15.77;;;;;;;1.86;92.52;104044.31;5053578;28;20073;-92
2022/01/13 06:53:06;;;;;;;122.55;16.90;;;;;;;1.89;92.31;104043.56;5052125;28;20475;-91
2022/01/13 06:55:31;;;;;;;158.88;17.85;;;;;;;1.93;92.43;104055.94;5051552;28;20043;-91
2022/01/13 06:57:56;;;;;;;239.07;22.95;;;;;;;1.89;92.37;104049.69;5053778;28;20195;-91
2022/01/13 07:00:23;;;;;;;247.43;22.02;;;;;;;1.81;92.69;104044.91;5053901;28;20071;-91
2022/01/13 07:02:48;;;;;;;276.30;24.38;;;;;;;1.82;92.59;104047.63;5066684;28;20273;-91
2022/01/13 07:05:14;;;;;;;186.45;21.17;;;;;;;1.87;92.60;104040.00;5066900;28;20484;-91
2022/01/13 07:07:40;;;;;;;236.50;21.65;;;;;;;1.91;92.19;104042.84;5054830;28;20211;-91
2022/01/13 07:10:08;;;;;;;91.25;16.83;;;;;;;1.96;92.55;104043.94;5066837;28;20428;-91
2022/01/13 07:12:33;;;;;;;162.70;19.10;;;;;;;1.95;92.29;104049.06;5052750;28;20017;-91
2022/01/13 07:14:59;;;;;;;310.90;25.88;;;;;;;1.93;92.18;104050.72;5052999;28;20032;-91
2022/01/13 07:17:25;;;;;;;122.03;17.45;;;;;;;1.96;91.94;104043.94;5054104;28;20066;-90
2022/01/13 07:19:53;;;;;;;242.93;23.25;;;;;;;1.93;92.12;104050.72;5067797;28;20123;-90
2022/01/13 07:22:19;;;;;;;74.78;13.57;;;;;;;1.99;91.94;104056.22;5055185;28;20503;-90
2022/01/13 07:24:44;;;;;;;212.90;19.38;;;;;;;1.88;92.47;104045.28;5065049;28;20534;-91
2022/01/13 07:27:10;;;;;;;105.22;16.42;;;;;;;1.91;92.52;104054.97;5065208;28;20036;-91
2022/01/13 07:29:35;;;;;;;191.98;18.05;;;;;;;1.82;92.68;104051.91;5051912;28;20112;-91
2022/01/13 07:32:01;;;;;;;274.88;25.13;;;;;;;1.87;92.96;104051.34;5066867;28;20056;-90
2022/01/13 07:34:26;;;;;;;102.32;14.23;;;;;;;1.92;92.99;104047.22;5053322;28;20036;-91
2022/01/13 07:36:51;;;;;;;193.05;18.98;;;;;;;1.91;92.57;104042.84;5054608;28;20025;-90
2022/01/13 07:39:17;;;;;;;256.80;26.00;;;;;;;1.86;92.77;104051.25;5053875;28;20455;-90
2022/01/13 07:41:42;;;;;;;211.75;19.35;;;;;;;1.84;92.86;104040.75;5055125;28;20036;-91
2022/01/13 07:44:08;;;;;;;192.30;20.95;;;;;;;1.86;92.77;104046.91;5053383;28;20128;-90
2022/01/13 07:46:34;;;;;;;293.35;23.75;;;;;;;1.80;92.91;104049.25;5050796;28;20067;-91
2022/01/13 07:48:59;;;;;;;168.43;18.70;;;;;;;1.89;92.77;104059.22;5052258;28;20417;-90
2022/01/13 07:51:24;;;;;;;120.35;15.43;;;;;;;1.97;92.59;104050.94;5065109;28;20415;-91
2022/01/13 07:53:50;;;;;;;196.23;19.48;;;;;;;1.97;92.65;104053.56;5057733;28;20107;-90
2022/01/13 07:56:16;;;;;;;207.27;20.23;;;;;;;1.92;92.90;104070.72;5066099;28;20137;-91
2022/01/13 07:58:43;;;;;;;255.07;23.20;;;;;;;1.90;93.11;104072.34;5058949;28;20056;-90
2022/01/13 08:01:08;;;;;;;200.55;19.95;;;;;;;1.92;92.88;104060.28;5053649;28;20028;-90
2022/01/13 08:03:34;;;;;;;179.77;21.33;;;;;;;1.97;93.07;104063.09;5062391;28;20059;-91
2022/01/13 08:06:00;;;;;;;169.95;18.35;;;;;;;1.94;92.85;104060.34;5048677;28;20063;-91
2022/01/13 08:08:26;;;;;;;243.13;22.67;;;;;;;1.93;92.95;104059.44;5034516;28;20120;-91
2022/01/13 08:11:16;;;;;;;227.00;24.00;;;;;;;2.03;92.96;104071.22;5039873;28;20033;-91
2022/01/13 08:14:03;;;;;;;261.88;23.08;;;;;;;1.98;92.99;104065.78;5051871;28;20025;-90
2022/01/13 08:16:47;;;;;;;295.48;27.85;;;;;;;1.94;93.14;104070.78;5052901;28;20056;-90
2022/01/13 08:22:47;;;;;;;177.07;19.00;;;;;;;2.11;93.17;104071.59;5055957;28;20048;-91
2022/01/13 08:25:12;;;;;;;262.90;24.55;;;;;;;2.15;92.90;104078.72;5050167;28;20037;-91
2022/01/13 08:27:38;;;;;;;72.78;15.60;;;;;;;2.14;92.73;104072.59;5055240;28;20032;-91
2022/01/13 08:30:05;;;;;;;265.27;26.38;;;;;;;2.12;92.99;104086.41;5053775;28;20399;-90
2022/01/13 08:32:31;;;;;;;184.52;21.63;;;;;;;2.09;93.16;104081.94;5048738;28;20538;-91
2022/01/13 08:34:56;;;;;;;135.23;17.42;;;;;;;2.16;93.25;104093.56;5056811;28;20032;-91
2022/01/13 08:37:22;;;;;;;103.10;15.05;;;;;;;2.22;93.08;104089.50;5054046;28;20364;-92
2022/01/13 08:39:47;;;;;;;104.60;15.15;;;;;;;2.25;92.72;104087.06;5055221;28;20488;-92
2022/01/13 08:42:14;;;;;;;110.03;14.88;;;;;;;2.32;92.58;104089.94;5052347;28;20348;-91
2022/01/13 08:44:40;;;;;;;225.80;19.77;;;;;;;2.28;93.01;104091.50;5052958;28;20511;-91
2022/01/13 08:47:06;;;;;;;173.63;20.65;;;;;;;2.34;92.65;104101.38;5053487;28;20479;-91
2022/01/13 08:49:33;;;;;;;226.60;20.30;;;;;;;2.35;92.67;104098.81;5056828;28;20044;-91
2022/01/13 08:51:59;;;;;;;203.95;21.05;;;;;;;2.34;92.77;104090.91;5050944;28;20036;-91
2022/01/13 08:54:24;;;;;;;108.78;16.65;;;;;;;2.46;92.63;104094.06;5065323;28;20810;-91
2022/01/13 08:56:50;;;;;;;180.60;18.65;;;;;;;2.45;92.41;104093.19;5051833;28;20509;-91
2022/01/13 08:59:15;;;;;;;118.55;15.88;;;;;;;2.44;92.67;104094.00;5063363;28;20513;-91
2022/01/13 09:01:42;;;;;;;180.20;20.27;;;;;;;2.37;92.42;104094.53;5063829;28;20614;-91
2022/01/13 09:04:07;;;;;;;137.05;19.23;;;;;;;2.39;92.76;104110.31;5053549;28;20044;-91
2022/01/13 09:06:33;;;;;;;135.82;20.40;;;;;;;2.48;92.26;104095.94;5052118;28;20267;-91
2022/01/13 09:08:58;;;;;;;270.90;22.60;;;;;;;2.52;92.81;104103.09;5064354;28;20434;-91
2022/01/13 09:11:24;;;;;;;206.35;23.65;;;;;;;2.40;92.76;104112.97;5063990;28;20041;-91
2022/01/13 09:13:56;;;;;;;248.05;23.00;;;;;;;2.47;92.38;104103.69;5053649;28;20024;-91
2022/01/13 09:16:24;;;;;;;175.10;21.52;;;;;;;2.51;92.62;104106.50;5051111;28;20036;-90
2022/01/13 09:21:22;;;;;;;167.23;21.45;;;;;;;2.35;92.86;104119.69;5064850;28;20036;-91
2022/01/13 09:23:47;;;;;;;95.35;15.32;;;;;;;2.39;92.59;104105.97;5047900;28;20032;-91
2022/01/13 09:26:13;;;;;;;155.60;19.02;;;;;;;2.50;92.62;104114.28;5063184;28;20069;-92
2022/01/13 09:28:39;;;;;;;219.85;19.95;;;;;;;2.52;92.64;104102.22;5050594;28;20111;-91
2022/01/13 09:31:05;;;;;;;177.00;21.40;;;;;;;2.45;92.59;104100.13;5064840;28;20055;-91
2022/01/13 09:33:31;;;;;;;124.05;17.15;;;;;;;2.40;92.78;104114.69;5051819;28;20033;-91
2022/01/13 09:35:57;;;;;;;172.43;21.17;;;;;;;2.39;92.91;104113.81;5052135;28;20043;-92
2022/01/13 09:38:22;;;;;;;237.82;23.88;;;;;;;2.55;92.76;104116.28;5053776;28;20467;-91
2022/01/13 09:40:52;;;;;;;162.40;18.65;;;;;;;2.57;92.56;104105.91;5054606;28;20142;-91
2022/01/13 09:43:20;;;;;;;175.27;18.50;;;;;;;2.55;92.25;104104.94;5051901;28;20090;-91
2022/01/13 09:45:47;;;;;;;133.77;18.40;;;;;;;2.48;92.41;104102.88;5064683;28;20780;-91
2022/01/13 09:48:13;;;;;;;258.85;27.33;;;;;;;2.50;92.79;104106.44;5054678;28;20039;-91
2022/01/13 09:50:39;;;;;;;160.07;18.30;;;;;;;2.54;92.86;104106.66;5055323;28;20480;-91
2022/01/13 09:53:04;;;;;;;104.78;16.63;;;;;;;2.61;92.60;104109.53;5069190;28;20024;-91
2022/01/13 09:55:30;;;;;;;101.60;16.80;;;;;;;2.71;92.03;104114.38;5058113;28;20020;-91
2022/01/13 09:58:00;;;;;;;121.10;18.83;;;;;;;2.66;92.48;104110.63;5050605;28;20535;-91
2022/01/13 10:00:26;;;;;;;65.00;14.68;;;;;;;2.68;92.38;104115.13;5055983;28;20112;-92
2022/01/13 10:02:53;;;;;;;96.60;14.90;;;;;;;2.73;92.09;104108.38;5054917;28;20029;-91
2022/01/13 10:05:21;;;;;;;186.90;21.35;;;;;;;2.61;92.33;104109.53;5065902;28;20504;-91
2022/01/13 10:07:48;;;;;;;60.20;12.88;;;;;;;2.81;92.16;104124.41;5059369;28;20064;-91
2022/01/13 10:10:16;;;;;;;147.23;21.08;;;;;;;2.66;92.08;104118.47;5056741;28;20560;-91
2022/01/13 10:13:00;;;;;;;137.45;18.40;;;;;;;2.68;92.49;104109.91;5064923;28;20021;-91
2022/01/13 10:18:09;;;;;;;54.35;12.73;;;;;;;2.84;91.38;104115.81;5067563;28;20047;-91
2022/01/13 10:20:35;;;;;;;128.40;18.15;;;;;;;2.76;91.03;104120.69;5056753;28;20028;-90
2022/01/13 10:23:11;;;;;;;55.17;12.40;;;;;;;2.83;91.92;104127.09;5055469;28;20028;-91
2022/01/13 10:25:39;;;;;;;147.63;21.05;;;;;;;2.75;91.63;104117.19;5053232;28;20032;-90
2022/01/13 10:28:18;;;;;;;133.48;17.75;;;;;;;2.84;91.64;104118.41;5068924;28;20480;-91
2022/01/13 10:30:46;;;;;;;100.05;16.33;;;;;;;2.90;91.98;104118.72;5052574;28;20107;-91
2022/01/13 10:33:21;;;;;;;99.05;17.02;;;;;;;2.79;91.95;104108.66;5054241;28;20052;-91
2022/01/13 10:35:50;;;;;;;74.35;13.88;;;;;;;2.95;92.04;104115.47;5066769;28;20446;-90
2022/01/13 10:38:17;;;;;;;56.08;11.52;;;;;;;2.99;91.43;104120.00;5067262;28;20094;-91
2022/01/13 10:40:53;;;;;;;80.88;14.50;;;;;;;2.92;91.45;104114.44;5054612;28;20032;-90
2022/01/13 10:43:23;;;;;;;120.60;20.05;;;;;;;2.87;91.69;104111.63;5054752;28;20035;-90
2022/01/13 10:45:57;;;;;;;99.75;17.63;;;;;;;2.85;91.50;104109.78;5067615;28;20032;-90
2022/01/13 10:48:28;;;;;;;107.03;20.42;;;;;;;2.85;91.33;104115.00;5056190;28;20051;-91
2022/01/13 10:50:56;;;;;;;77.38;14.95;;;;;;;2.94;91.44;104113.69;5054529;28;20032;-91
2022/01/13 10:53:28;;;;;;;88.65;15.82;;;;;;;3.02;91.08;104109.66;5054227;28;20033;-91
2022/01/13 10:56:14;;;;;;;46.60;11.80;;;;;;;3.10;91.16;104104.78;5053398;28;20479;-91
2022/01/13 10:58:48;;;;;;;107.18;17.08;;;;;;;3.07;90.97;104108.13;5053519;28;20071;-91
2022/01/13 11:01:14;;;;;;;44.88;13.68;;;;;;;3.11;91.32;104098.72;5065964;28;20510;-90
2022/01/13 11:03:41;;;;;;;57.13;13.48;;;;;;;3.14;91.19;104090.13;5058618;28;20017;-91
2022/01/13 11:06:09;;;;;;;97.07;15.70;;;;;;;3.17;91.32;104090.22;5056646;28;20033;-91
2022/01/13 11:08:40;;;;;;;124.68;20.55;;;;;;;3.07;91.53;104089.84;5053551;28;20429;-91
2022/01/13 11:11:21;;;;;;;53.33;13.23;;;;;;;3.18;91.27;104086.81;5057648;28;20028;-90
2022/01/13 11:13:52;;;;;;;48.90;11.68;;;;;;;3.21;91.00;104086.94;5059429;28;20035;-90
2022/01/13 11:16:17;;;;;;;38.13;10.70;;;;;;;3.13;91.08;104078.78;5055921;28;20466;-91
2022/01/13 11:18:43;;;;;;;81.25;13.57;;;;;;;2.99;91.52;104074.69;5057146;28;20112;-91
2022/01/13 11:21:08;;;;;;;35.08;13.07;;;;;;;3.16;91.42;104068.44;5054984;28;20036;-91
2022/01/13 11:23:36;;;;;;;68.88;16.38;;;;;;;3.25;91.28;104068.81;5058686;28;20130;-92
2022/01/13 11:26:02;;;;;;;101.05;19.77;;;;;;;3.17;91.23;104069.31;5052557;28;20051;-91
2022/01/13 11:28:27;;;;;;;44.88;13.48;;;;;;;3.29;91.80;104064.63;5055152;28;20028;-91
2022/01/13 11:30:52;;;;;;;44.95;12.55;;;;;;;3.33;90.91;104064.81;5058493;28;20556;-91
2022/01/13 11:33:19;;;;;;;73.22;14.55;;;;;;;3.27;90.25;104058.44;5044014;28;20463;-91
2022/01/13 11:35:53;;;;;;;84.82;16.45;;;;;;;3.21;90.33;104066.91;5046295;28;20379;-91
2022/01/13 11:38:19;;;;;;;74.35;16.52;;;;;;;3.01;91.27;104073.91;5044597;28;20025;-91
2022/01/13 11:40:51;;;;;;;41.70;12.57;;;;;;;3.28;91.16;104074.19;5044170;28;20043;-91
2022/01/13 11:43:29;;;;;;;35.15;11.55;;;;;;;3.41;90.55;104062.53;5044974;28;20108;-90
2022/01/13 11:45:56;;;;;;;97.75;16.30;;;;;;;3.14;90.54;104057.03;5045234;28;20411;-90